Time;durP1;ratioP1;P1;durP2;ratioP2;P2;SDS_P1;SDS_P2;PMS_P1;PMS_P2;Temp;Humidity;BMP_temperature;BMP_pressure;BME280_temperature;BME280_humidity;BME280_pressure;Samples;Min_cycle;Max_cycle;Signal;HPM_P1;HPM_P2
2022/07/30 00:02:18;;;;;;;4.75;2.60;;;14.60;99.90;;;;;;5001998;28;20046;-77
2022/07/30 00:04:44;;;;;;;4.72;3.38;;;14.60;99.90;;;;;;4983457;28;20559;-77
2022/07/30 00:07:11;;;;;;;6.55;2.70;;;14.50;99.90;;;;;;5011548;28;20034;-77
2022/07/30 00:09:37;;;;;;;7.40;2.95;;;14.50;99.90;;;;;;5004541;28;20497;-78
2022/07/30 00:12:04;;;;;;;4.70;2.90;;;14.50;99.90;;;;;;4999062;28;20056;-77
2022/07/30 00:14:30;;;;;;;4.78;2.38;;;14.40;99.90;;;;;;5000694;28;20049;-77
2022/07/30 00:16:55;;;;;;;5.78;2.95;;;14.30;99.90;;;;;;5003909;28;20041;-80
2022/07/30 00:19:21;;;;;;;6.32;2.72;;;14.30;99.90;;;;;;5001781;28;20046;-78
2022/07/30 00:21:46;;;;;;;3.45;2.75;;;14.20;99.90;;;;;;4999944;28;20462;-77
2022/07/30 00:24:12;;;;;;;4.20;2.65;;;14.20;99.90;;;;;;5001264;28;20050;-77
2022/07/30 00:26:38;;;;;;;6.60;2.80;;;14.30;99.90;;;;;;5000407;28;20505;-79
2022/07/30 00:29:04;;;;;;;5.68;2.78;;;14.10;99.90;;;;;;4999715;28;20046;-77
2022/07/30 00:31:31;;;;;;;6.13;3.10;;;14.10;99.90;;;;;;5000869;28;20565;-77
2022/07/30 00:33:57;;;;;;;4.85;2.63;;;14.10;99.90;;;;;;5012882;28;20140;-77
2022/07/30 00:36:23;;;;;;;4.45;3.10;;;14.10;99.90;;;;;;5016825;28;20140;-77
2022/07/30 00:38:48;;;;;;;5.47;2.65;;;14.00;99.90;;;;;;5003328;28;20037;-77
2022/07/30 00:41:14;;;;;;;4.75;2.88;;;13.90;99.90;;;;;;4997761;28;20381;-78
2022/07/30 00:43:40;;;;;;;5.00;3.40;;;13.90;99.90;;;;;;4997462;28;20053;-80
2022/07/30 00:46:05;;;;;;;9.00;3.88;;;13.90;99.90;;;;;;5000168;28;20034;-78
2022/07/30 00:48:31;;;;;;;6.55;2.85;;;13.80;99.90;;;;;;4997581;28;20049;-79
2022/07/30 00:50:56;;;;;;;6.45;3.20;;;13.80;99.90;;;;;;5016262;28;20076;-78
2022/07/30 00:53:22;;;;;;;4.35;3.33;;;13.80;99.90;;;;;;5000746;28;20145;-77
2022/07/30 00:55:48;;;;;;;8.30;3.55;;;13.80;99.90;;;;;;5002751;28;20045;-77
2022/07/30 00:58:13;;;;;;;4.22;2.90;;;13.80;99.90;;;;;;5001911;28;20049;-79
2022/07/30 01:00:39;;;;;;;5.53;3.47;;;13.80;99.90;;;;;;5000639;28;20129;-79
2022/07/30 01:03:05;;;;;;;5.68;2.83;;;13.80;99.90;;;;;;5001070;28;20045;-77
2022/07/30 01:05:31;;;;;;;4.85;2.42;;;13.80;99.90;;;;;;5003639;28;20050;-78
2022/07/30 01:07:57;;;;;;;4.47;2.80;;;13.80;99.90;;;;;;5007107;28;20050;-77
2022/07/30 01:10:22;;;;;;;6.70;2.83;;;13.80;99.90;;;;;;5004068;28;20041;-77
2022/07/30 01:12:48;;;;;;;5.50;2.70;;;13.70;99.90;;;;;;5002910;28;20041;-77
2022/07/30 01:15:14;;;;;;;6.70;2.80;;;13.60;99.90;;;;;;5000471;28;20045;-80
2022/07/30 01:17:40;;;;;;;7.65;3.30;;;13.60;99.90;;;;;;5003039;28;20619;-79
2022/07/30 01:20:10;;;;;;;4.72;3.40;;;13.60;99.90;;;;;;5001243;28;20527;-77
2022/07/30 01:22:54;;;;;;;8.30;3.13;;;13.60;99.90;;;;;;5003777;28;20141;-78
2022/07/30 01:25:30;;;;;;;6.90;2.85;;;13.50;99.90;;;;;;5019049;28;20100;-79
2022/07/30 01:28:08;;;;;;;3.90;2.85;;;13.50;99.90;;;;;;5006928;28;20073;-78
2022/07/30 01:30:38;;;;;;;7.45;3.20;;;13.40;99.90;;;;;;5002521;28;20147;-77
2022/07/30 01:33:06;;;;;;;6.28;3.22;;;13.50;99.90;;;;;;5002530;28;20052;-78
2022/07/30 01:35:33;;;;;;;4.03;3.40;;;13.40;99.90;;;;;;5005151;28;20050;-77
2022/07/30 01:38:00;;;;;;;4.25;3.28;;;13.40;99.90;;;;;;5007392;28;20049;-77
2022/07/30 01:40:28;;;;;;;5.50;3.72;;;13.40;99.90;;;;;;5001734;28;20033;-77
2022/07/30 01:42:56;;;;;;;5.95;2.90;;;13.40;99.90;;;;;;5005990;28;20060;-77
2022/07/30 01:45:25;;;;;;;6.75;4.40;;;13.40;99.90;;;;;;4999633;28;20298;-77
2022/07/30 01:47:53;;;;;;;5.93;4.43;;;13.50;99.90;;;;;;5016267;28;20053;-78
2022/07/30 01:50:21;;;;;;;5.57;3.83;;;13.40;99.90;;;;;;5000780;28;20452;-80
2022/07/30 01:52:48;;;;;;;8.70;3.42;;;13.40;99.90;;;;;;5004104;28;20034;-78
2022/07/30 01:55:24;;;;;;;5.80;4.15;;;13.20;99.90;;;;;;4999525;28;20053;-78
2022/07/30 01:57:50;;;;;;;;;;;13.20;99.90;;;;;;5003515;28;20394;-77
2022/07/30 02:00:17;;;;;;;7.38;4.03;;;13.10;99.90;;;;;;4999477;28;19933;-78
2022/07/30 02:02:43;;;;;;;5.82;4.93;;;13.10;99.90;;;;;;4998976;28;20046;-78
2022/07/30 02:05:09;;;;;;;5.20;3.97;;;13.10;99.90;;;;;;5003605;28;21811;-77
2022/07/30 02:08:02;;;;;;;5.85;4.50;;;13.20;99.90;;;;;;5005352;28;20042;-77
2022/07/30 02:10:51;;;;;;;5.18;4.22;;;13.20;99.90;;;;;;4999184;28;20045;-77
2022/07/30 02:13:21;;;;;;;5.82;3.65;;;13.20;99.90;;;;;;4998802;28;20049;-77
2022/07/30 02:15:58;;;;;;;4.03;3.05;;;13.10;99.90;;;;;;5000321;28;20052;-77
2022/07/30 02:18:31;;;;;;;7.60;3.30;;;13.10;99.90;;;;;;4997904;28;20045;-78
2022/07/30 02:21:03;;;;;;;3.47;3.17;;;13.00;99.90;;;;;;4994153;28;20065;-77
2022/07/30 02:23:33;;;;;;;10.30;4.40;;;13.00;99.90;;;;;;5018103;28;20054;-79
2022/07/30 02:26:00;;;;;;;6.32;3.00;;;13.00;99.90;;;;;;5004311;28;20515;-77
2022/07/30 02:28:27;;;;;;;7.53;3.33;;;12.90;99.90;;;;;;5007700;28;20156;-77
2022/07/30 02:30:56;;;;;;;5.60;3.50;;;12.90;99.90;;;;;;5000751;28;20037;-77
2022/07/30 02:33:26;;;;;;;7.53;4.13;;;12.90;99.90;;;;;;4996145;28;20054;-77
2022/07/30 02:35:54;;;;;;;6.50;4.13;;;12.80;99.90;;;;;;4996897;28;20034;-77
2022/07/30 02:38:21;;;;;;;7.43;5.53;;;12.80;99.90;;;;;;4997868;28;20124;-78
2022/07/30 02:40:47;;;;;;;7.10;6.30;;;13.00;99.90;;;;;;4997649;28;20052;-78
2022/07/30 02:43:15;;;;;;;7.93;5.82;;;13.00;99.90;;;;;;4997214;28;20389;-77
2022/07/30 02:45:41;;;;;;;10.30;7.18;;;13.10;99.90;;;;;;4996406;28;20088;-76
2022/07/30 02:48:09;;;;;;;7.00;6.30;;;13.10;99.90;;;;;;4997780;28;20768;-77
2022/07/30 02:50:35;;;;;;;9.73;6.03;;;13.10;99.90;;;;;;4997093;28;20046;-77
2022/07/30 02:53:04;;;;;;;9.30;6.00;;;13.10;99.90;;;;;;4997466;28;20041;-77
2022/07/30 02:55:32;;;;;;;10.27;6.20;;;13.10;99.90;;;;;;4991489;28;20059;-80
2022/07/30 02:58:00;;;;;;;7.40;6.25;;;13.10;99.90;;;;;;4997953;28;20056;-77
2022/07/30 03:00:28;;;;;;;6.10;5.60;;;13.20;99.90;;;;;;4995392;28;20045;-79
2022/07/30 03:02:56;;;;;;;5.80;5.20;;;13.10;99.90;;;;;;4997930;28;20554;-77
2022/07/30 03:05:22;;;;;;;9.00;6.47;;;13.10;99.90;;;;;;4995674;28;20045;-77
2022/07/30 03:07:48;;;;;;;7.32;5.97;;;13.20;99.90;;;;;;4998974;28;20042;-79
2022/07/30 03:10:14;;;;;;;7.75;6.95;;;13.10;99.90;;;;;;4993995;28;20127;-77
2022/07/30 03:12:43;;;;;;;7.28;6.45;;;13.10;99.90;;;;;;4995395;28;20068;-77
2022/07/30 03:15:09;;;;;;;7.95;6.32;;;13.10;99.90;;;;;;4996210;28;20045;-78
2022/07/30 03:17:41;;;;;;;11.55;8.55;;;13.20;99.90;;;;;;4997836;28;20108;-76
2022/07/30 03:20:10;;;;;;;7.85;6.93;;;13.20;99.90;;;;;;4997847;28;20384;-77
2022/07/30 03:22:48;;;;;;;8.90;6.57;;;13.20;99.90;;;;;;4994287;28;20050;-77
2022/07/30 03:25:17;;;;;;;8.98;8.00;;;13.10;99.90;;;;;;4994713;28;20069;-77
2022/07/30 03:27:44;;;;;;;10.07;8.02;;;13.00;99.90;;;;;;4993672;28;20045;-78
2022/07/30 03:30:11;;;;;;;20.23;8.57;;;13.00;99.90;;;;;;4994311;28;20049;-77
2022/07/30 03:32:36;;;;;;;12.90;7.57;;;12.90;99.90;;;;;;4984084;28;20250;-77
2022/07/30 03:35:04;;;;;;;13.43;8.73;;;12.90;99.90;;;;;;4997683;28;20128;-77
2022/07/30 03:37:30;;;;;;;15.93;9.55;;;12.90;99.90;;;;;;4978678;28;20073;-77
2022/07/30 03:39:57;;;;;;;14.77;9.93;;;12.90;99.90;;;;;;5001284;28;20070;-78
2022/07/30 03:42:24;;;;;;;12.88;8.98;;;13.00;99.90;;;;;;4999169;28;20104;-78
2022/07/30 03:44:50;;;;;;;16.52;9.85;;;13.00;99.90;;;;;;4999118;28;20047;-77
2022/07/30 03:47:17;;;;;;;14.60;8.95;;;13.00;99.90;;;;;;5004009;28;20065;-78
2022/07/30 03:49:43;;;;;;;16.17;11.38;;;13.10;99.90;;;;;;5001938;28;20033;-76
2022/07/30 03:52:09;;;;;;;17.83;11.70;;;13.10;99.90;;;;;;5002285;28;20044;-76
2022/07/30 03:54:35;;;;;;;15.43;9.43;;;13.20;99.90;;;;;;5000208;28;20042;-77
2022/07/30 03:57:03;;;;;;;11.65;9.77;;;13.20;99.90;;;;;;4999617;28;20046;-79
2022/07/30 03:59:28;;;;;;;17.38;10.98;;;13.20;99.90;;;;;;4995545;28;20047;-78
2022/07/30 04:02:00;;;;;;;66.03;11.80;;;13.20;99.90;;;;;;5001886;28;20046;-78
2022/07/30 04:04:25;;;;;;;66.63;11.43;;;13.40;99.90;;;;;;4999983;28;20103;-77
2022/07/30 04:06:51;;;;;;;33.65;12.02;;;13.40;99.90;;;;;;4986763;28;20045;-77
2022/07/30 04:09:17;;;;;;;37.97;10.20;;;13.40;99.90;;;;;;4998221;28;20029;-77
2022/07/30 04:11:42;;;;;;;29.73;9.70;;;13.50;99.90;;;;;;5000886;28;20057;-77
2022/07/30 04:14:08;;;;;;;53.00;10.02;;;13.50;99.90;;;;;;5002869;28;20057;-77
2022/07/30 04:16:36;;;;;;;29.98;9.68;;;13.50;99.90;;;;;;4999454;28;20922;-77
2022/07/30 04:19:05;;;;;;;62.20;10.60;;;13.60;99.90;;;;;;5000504;28;20192;-77
2022/07/30 04:21:32;;;;;;;63.08;10.32;;;13.60;99.90;;;;;;5000358;28;20806;-79
2022/07/30 04:24:00;;;;;;;43.85;8.48;;;13.60;99.90;;;;;;5014055;28;20084;-80
2022/07/30 04:26:29;;;;;;;42.10;8.93;;;13.60;99.90;;;;;;5000469;28;20149;-78
2022/07/30 04:28:55;;;;;;;50.35;8.65;;;13.60;99.90;;;;;;5013590;28;20136;-79
2022/07/30 04:31:21;;;;;;;24.77;8.23;;;13.60;99.90;;;;;;4998868;28;20124;-77
2022/07/30 04:33:46;;;;;;;36.70;8.38;;;13.60;99.90;;;;;;4997736;28;20048;-77
2022/07/30 04:36:12;;;;;;;15.38;8.60;;;13.60;99.90;;;;;;5001116;28;20053;-77
2022/07/30 04:38:38;;;;;;;10.80;7.57;;;13.70;99.90;;;;;;5015935;28;20060;-78
2022/07/30 04:41:03;;;;;;;8.90;8.00;;;13.70;99.90;;;;;;5002835;28;20049;-78
2022/07/30 04:43:29;;;;;;;12.13;7.32;;;13.80;99.90;;;;;;5000604;28;20037;-77
2022/07/30 04:45:55;;;;;;;8.80;7.82;;;13.80;99.90;;;;;;4999301;28;20038;-78
2022/07/30 04:48:20;;;;;;;7.50;6.90;;;13.90;99.90;;;;;;5002115;28;20053;-77
2022/07/30 04:50:50;;;;;;;12.52;6.82;;;14.00;99.90;;;;;;5001296;28;20054;-78
2022/07/30 04:53:17;;;;;;;8.18;7.32;;;14.00;99.90;;;;;;4998593;28;20055;-79
2022/07/30 04:55:47;;;;;;;8.38;7.78;;;14.10;99.90;;;;;;5000161;28;20403;-77
2022/07/30 04:58:15;;;;;;;7.60;6.75;;;14.10;99.90;;;;;;4999496;28;20133;-78
2022/07/30 05:00:41;;;;;;;10.57;6.90;;;14.10;99.90;;;;;;4997596;28;20038;-78
2022/07/30 05:03:10;;;;;;;13.23;7.00;;;14.20;99.90;;;;;;4999812;28;20042;-78
2022/07/30 05:05:36;;;;;;;14.63;6.72;;;14.30;99.90;;;;;;4995055;28;20165;-77
2022/07/30 05:08:02;;;;;;;12.38;6.95;;;14.40;99.90;;;;;;5013966;28;20546;-78
2022/07/30 05:10:28;;;;;;;27.65;7.70;;;14.50;99.90;;;;;;4998688;28;20069;-78
2022/07/30 05:12:54;;;;;;;14.23;6.57;;;14.60;99.90;;;;;;4997946;28;20123;-77
2022/07/30 05:15:19;;;;;;;26.30;6.63;;;14.70;99.90;;;;;;4996796;28;20479;-78
2022/07/30 05:17:45;;;;;;;12.05;6.10;;;14.70;99.90;;;;;;4997548;28;20042;-77
2022/07/30 05:20:11;;;;;;;32.10;6.97;;;14.90;99.90;;;;;;4995335;28;20076;-79
2022/07/30 05:22:36;;;;;;;15.23;6.88;;;14.90;99.90;;;;;;5003060;28;20046;-77
2022/07/30 05:25:02;;;;;;;29.50;6.60;;;15.10;99.90;;;;;;4998744;28;20042;-77
2022/07/30 05:27:28;;;;;;;30.60;6.90;;;15.10;99.90;;;;;;5000396;28;20046;-79
2022/07/30 05:29:53;;;;;;;15.88;6.43;;;15.20;99.90;;;;;;4996956;28;20465;-79
2022/07/30 05:32:19;;;;;;;29.13;6.70;;;15.30;99.90;;;;;;4999941;28;20128;-79
2022/07/30 05:34:45;;;;;;;24.88;6.93;;;15.50;99.90;;;;;;4997707;28;20052;-77
2022/07/30 05:37:11;;;;;;;7.22;6.53;;;15.50;99.90;;;;;;4999054;28;20050;-77
2022/07/30 05:39:36;;;;;;;6.22;5.57;;;15.60;99.90;;;;;;5003397;28;20045;-79
2022/07/30 05:42:02;;;;;;;15.80;5.53;;;15.70;99.90;;;;;;5001749;28;20077;-77
2022/07/30 05:44:27;;;;;;;6.32;5.28;;;15.80;99.90;;;;;;4997733;28;20034;-79
2022/07/30 05:46:53;;;;;;;23.25;6.90;;;15.90;99.90;;;;;;5003694;28;20094;-77
2022/07/30 05:49:19;;;;;;;8.75;6.40;;;16.00;99.90;;;;;;5001550;28;20140;-79
2022/07/30 05:51:44;;;;;;;10.07;5.32;;;16.10;99.90;;;;;;4999080;28;20033;-78
2022/07/30 05:54:10;;;;;;;9.60;6.50;;;16.10;99.90;;;;;;5004863;28;20053;-77
2022/07/30 05:56:36;;;;;;;25.65;6.25;;;16.20;99.90;;;;;;5017318;28;20038;-78
2022/07/30 05:59:02;;;;;;;27.10;5.93;;;16.40;99.90;;;;;;5005082;28;20042;-77
2022/07/30 06:01:28;;;;;;;18.63;6.10;;;16.50;99.90;;;;;;5004598;28;20044;-78
2022/07/30 06:03:53;;;;;;;8.55;5.85;;;16.60;99.90;;;;;;4988281;28;20042;-78
2022/07/30 06:06:19;;;;;;;41.17;7.43;;;16.60;99.90;;;;;;5002223;28;20042;-78
2022/07/30 06:08:44;;;;;;;14.07;5.90;;;16.60;99.90;;;;;;5003476;28;20043;-78
2022/07/30 06:11:10;;;;;;;21.83;6.18;;;16.70;99.90;;;;;;4999783;28;20099;-78
2022/07/30 06:13:37;;;;;;;14.50;6.32;;;16.70;99.90;;;;;;5000285;28;20127;-79
2022/07/30 06:16:03;;;;;;;22.40;7.18;;;16.80;99.90;;;;;;4998318;28;20049;-77
2022/07/30 06:18:28;;;;;;;9.60;6.07;;;16.80;99.90;;;;;;5004615;28;20500;-77
2022/07/30 06:20:54;;;;;;;10.60;7.07;;;16.90;99.90;;;;;;5004300;28;20033;-77
2022/07/30 06:23:20;;;;;;;11.07;7.30;;;17.00;99.90;;;;;;5004550;28;20125;-78
2022/07/30 06:25:47;;;;;;;9.02;6.38;;;17.10;99.90;;;;;;5002905;28;20397;-79
2022/07/30 06:28:13;;;;;;;12.32;7.13;;;17.20;99.90;;;;;;5000532;28;20065;-79
2022/07/30 06:30:39;;;;;;;10.43;7.45;;;17.30;99.90;;;;;;5002430;28;20037;-78
2022/07/30 06:33:06;;;;;;;9.57;7.38;;;17.30;99.90;;;;;;5001261;28;20108;-78
2022/07/30 06:35:33;;;;;;;11.50;8.02;;;17.40;99.90;;;;;;5003044;28;20053;-78
2022/07/30 06:37:59;;;;;;;13.55;9.90;;;17.50;99.90;;;;;;5000740;28;20125;-80
2022/07/30 06:40:25;;;;;;;13.55;10.52;;;17.50;99.90;;;;;;5016055;28;20049;-80
2022/07/30 06:42:50;;;;;;;10.27;8.93;;;17.50;99.90;;;;;;5005698;28;20049;-80
2022/07/30 06:45:16;;;;;;;13.02;9.60;;;17.60;99.90;;;;;;5001614;28;21769;-80
2022/07/30 06:47:41;;;;;;;13.02;10.85;;;17.70;99.90;;;;;;4988580;28;20045;-80
2022/07/30 06:50:10;;;;;;;11.68;8.40;;;17.80;99.90;;;;;;5004870;28;20125;-82
2022/07/30 06:52:36;;;;;;;11.07;8.80;;;18.00;99.90;;;;;;4991884;28;20042;-81
2022/07/30 06:55:02;;;;;;;12.85;7.40;;;18.20;99.90;;;;;;4990492;28;20052;-82
2022/07/30 06:57:27;;;;;;;9.93;7.55;;;18.50;99.90;;;;;;5006919;28;20179;-82
2022/07/30 06:59:53;;;;;;;10.63;7.68;;;18.70;99.90;;;;;;5004026;28;20038;-81
2022/07/30 07:02:18;;;;;;;8.07;7.03;;;18.80;99.90;;;;;;5002338;28;20041;-80
2022/07/30 07:04:44;;;;;;;10.25;8.27;;;19.00;99.90;;;;;;5006582;28;20049;-81
2022/07/30 07:07:10;;;;;;;13.57;7.07;;;19.10;99.90;;;;;;5002152;28;20087;-82
2022/07/30 07:09:35;;;;;;;10.55;6.55;;;19.20;99.90;;;;;;5001886;28;20099;-79
2022/07/30 07:12:01;;;;;;;10.60;6.47;;;19.30;99.90;;;;;;5005618;28;20041;-80
2022/07/30 07:14:26;;;;;;;10.80;6.65;;;19.30;99.90;;;;;;5005269;28;20046;-78
2022/07/30 07:16:52;;;;;;;8.82;6.85;;;19.30;99.90;;;;;;4987895;28;20049;-79
2022/07/30 07:19:18;;;;;;;10.30;7.32;;;19.30;99.90;;;;;;5003376;28;20045;-80
2022/07/30 07:21:43;;;;;;;10.63;6.93;;;19.30;99.90;;;;;;5003845;28;20481;-80
2022/07/30 07:24:09;;;;;;;8.85;6.80;;;19.30;99.90;;;;;;5004680;28;20053;-79
2022/07/30 07:26:34;;;;;;;11.40;7.05;;;19.30;99.90;;;;;;5005037;28;20050;-81
2022/07/30 07:29:01;;;;;;;8.05;6.63;;;19.20;99.90;;;;;;4988046;28;20519;-78
2022/07/30 07:31:27;;;;;;;9.07;6.63;;;19.20;99.90;;;;;;5003187;28;20049;-81
2022/07/30 07:33:55;;;;;;;16.45;8.13;;;19.30;99.90;;;;;;4999429;28;20057;-79
2022/07/30 07:36:21;;;;;;;8.45;6.10;;;19.40;99.90;;;;;;5003213;28;20141;-79
2022/07/30 07:38:49;;;;;;;11.50;5.90;;;19.40;99.90;;;;;;5006029;28;21035;-81
2022/07/30 07:41:15;;;;;;;10.88;6.40;;;19.40;99.90;;;;;;5006992;28;20500;-80
2022/07/30 07:43:40;;;;;;;12.73;6.75;;;19.60;99.90;;;;;;5002893;28;20120;-79
2022/07/30 07:46:06;;;;;;;9.05;5.85;;;19.70;99.90;;;;;;5000093;28;20496;-82
2022/07/30 07:48:32;;;;;;;11.95;6.13;;;19.70;99.90;;;;;;5000640;28;20382;-80
2022/07/30 07:50:58;;;;;;;10.65;6.18;;;20.00;99.90;;;;;;4978934;28;20056;-78
2022/07/30 07:53:23;;;;;;;11.05;6.18;;;20.10;99.90;;;;;;5003945;28;20046;-78
2022/07/30 07:55:49;;;;;;;10.35;5.72;;;20.30;99.90;;;;;;5000579;28;20053;-79
2022/07/30 07:58:15;;;;;;;9.52;4.60;;;20.50;99.90;;;;;;5000233;28;20073;-78
2022/07/30 08:00:41;;;;;;;9.20;5.63;;;20.90;99.90;;;;;;5002025;28;20074;-78
2022/07/30 08:03:06;;;;;;;11.15;3.50;;;21.20;99.90;;;;;;5003135;28;20250;-79
2022/07/30 08:05:32;;;;;;;7.32;4.13;;;21.30;99.90;;;;;;5001434;28;20061;-78
2022/07/30 08:07:58;;;;;;;9.35;4.55;;;21.50;99.90;;;;;;5003428;28;20062;-81
2022/07/30 08:10:26;;;;;;;8.90;4.38;;;21.60;99.90;;;;;;5002066;28;20067;-81
2022/07/30 08:12:52;;;;;;;7.15;3.03;;;21.90;99.90;;;;;;5018990;28;20080;-81
2022/07/30 08:15:18;;;;;;;8.65;3.30;;;22.10;99.90;;;;;;5003073;28;20046;-83
2022/07/30 08:17:45;;;;;;;7.55;2.95;;;22.10;99.90;;;;;;5002540;28;20052;-81
2022/07/30 08:20:12;;;;;;;12.05;3.92;;;22.30;99.90;;;;;;5000511;28;20041;-79
2022/07/30 08:22:38;;;;;;;10.43;2.47;;;22.70;99.90;;;;;;5002743;28;20104;-78
2022/07/30 08:25:04;;;;;;;8.20;2.25;;;23.10;99.90;;;;;;5004932;28;20531;-79
2022/07/30 08:27:30;;;;;;;6.60;2.40;;;23.50;99.90;;;;;;4997419;28;20037;-78
2022/07/30 08:29:56;;;;;;;8.40;2.75;;;23.60;99.90;;;;;;5001931;28;20451;-80
2022/07/30 08:32:21;;;;;;;7.53;2.15;;;23.60;99.90;;;;;;4999438;28;20041;-78
2022/07/30 08:34:47;;;;;;;7.93;2.38;;;23.80;99.90;;;;;;5004091;28;20057;-78
2022/07/30 08:37:13;;;;;;;6.45;2.10;;;24.10;99.90;;;;;;5001686;28;20050;-78
2022/07/30 08:39:38;;;;;;;6.30;2.40;;;24.40;99.90;;;;;;4997022;28;20400;-79
2022/07/30 08:42:04;;;;;;;5.82;2.00;;;24.40;99.90;;;;;;5000531;28;20050;-81
2022/07/30 08:44:32;;;;;;;4.85;1.58;;;24.20;99.90;;;;;;4999358;28;20042;-79
2022/07/30 08:46:58;;;;;;;11.27;2.17;;;24.40;99.90;;;;;;5002673;28;20088;-78
2022/07/30 08:49:25;;;;;;;8.75;2.20;;;24.60;99.90;;;;;;5001442;28;20041;-79
2022/07/30 08:51:51;;;;;;;7.82;2.13;;;24.70;99.90;;;;;;5002041;28;20050;-79
2022/07/30 08:54:20;;;;;;;4.85;1.88;;;24.70;99.90;;;;;;5002843;28;20446;-79
2022/07/30 08:56:48;;;;;;;10.10;2.30;;;24.90;99.90;;;;;;4999805;28;20045;-78
2022/07/30 08:59:16;;;;;;;5.47;1.80;;;25.00;99.90;;;;;;4999171;28;20069;-78
2022/07/30 09:01:41;;;;;;;6.85;2.17;;;24.70;99.90;;;;;;5003732;28;20111;-80
2022/07/30 09:04:07;;;;;;;5.75;1.73;;;24.70;99.90;;;;;;5004176;28;20627;-79
2022/07/30 09:06:33;;;;;;;6.65;2.08;;;24.30;99.90;;;;;;5000577;28;20121;-78
2022/07/30 09:08:58;;;;;;;5.25;1.80;;;24.30;99.90;;;;;;5003836;28;20034;-79
2022/07/30 09:11:24;;;;;;;15.93;2.50;;;24.50;99.90;;;;;;5004877;28;20045;-79
2022/07/30 09:13:49;;;;;;;8.43;1.88;;;24.70;99.90;;;;;;5000936;28;20061;-79
2022/07/30 09:16:33;;;;;;;7.53;1.60;;;25.00;99.90;;;;;;4999264;28;20037;-79
2022/07/30 09:19:13;;;;;;;5.70;2.30;;;25.40;99.90;;;;;;5001056;28;20499;-78
2022/07/30 09:21:38;;;;;;;5.82;1.92;;;25.50;99.90;;;;;;5006987;28;20038;-78
2022/07/30 09:24:10;;;;;;;5.25;1.95;;;25.60;99.90;;;;;;5005372;28;20046;-78
2022/07/30 09:26:55;;;;;;;5.35;1.40;;;25.90;99.90;;;;;;5004850;28;20072;-78
2022/07/30 09:29:23;;;;;;;7.47;1.58;;;25.60;99.90;;;;;;5002426;28;20140;-79
2022/07/30 09:31:54;;;;;;;9.20;1.75;;;25.40;99.90;;;;;;5020803;28;20060;-78
2022/07/30 09:34:31;;;;;;;7.15;1.10;;;25.40;99.90;;;;;;5005577;28;20061;-79
2022/07/30 09:36:59;;;;;;;7.20;1.63;;;25.60;99.90;;;;;;5003305;28;20042;-80
2022/07/30 09:39:32;;;;;;;5.95;1.58;;;25.70;99.90;;;;;;5002986;28;20174;-80
2022/07/30 09:41:59;;;;;;;5.70;1.70;;;25.90;99.90;;;;;;5016315;28;20071;-78
2022/07/30 09:44:26;;;;;;;8.25;2.47;;;26.10;99.90;;;;;;5006958;28;20540;-81
2022/07/30 09:46:52;;;;;;;5.18;1.48;;;26.30;99.90;;;;;;5003828;28;20151;-79
2022/07/30 09:49:20;;;;;;;6.50;1.42;;;26.40;99.90;;;;;;5001640;28;20126;-79
2022/07/30 09:51:46;;;;;;;4.57;1.50;;;26.50;99.90;;;;;;5004817;28;20591;-80
2022/07/30 09:54:11;;;;;;;4.53;1.50;;;26.30;99.90;;;;;;5006130;28;20084;-79
2022/07/30 09:56:38;;;;;;;8.88;1.88;;;26.20;99.90;;;;;;5005286;28;20128;-80
2022/07/30 09:59:05;;;;;;;9.88;2.45;;;26.30;99.90;;;;;;5002995;28;20034;-80
2022/07/30 10:01:50;;;;;;;6.53;2.10;;;26.30;99.90;;;;;;5004701;28;20493;-81
2022/07/30 10:04:27;;;;;;;4.07;1.55;;;26.50;99.90;;;;;;5006370;28;20045;-80
2022/07/30 10:06:53;;;;;;;7.45;1.80;;;26.60;99.90;;;;;;5008901;28;20054;-83
2022/07/30 10:09:31;;;;;;;15.82;1.80;;;26.60;99.90;;;;;;5005129;28;20069;-80
2022/07/30 10:11:59;;;;;;;4.72;1.20;;;26.50;99.90;;;;;;5008694;28;20548;-81
2022/07/30 10:14:29;;;;;;;8.27;2.10;;;26.50;99.90;;;;;;5010791;28;20406;-82
2022/07/30 10:16:55;;;;;;;10.27;1.80;;;26.60;99.90;;;;;;5007840;28;20037;-82
2022/07/30 10:19:22;;;;;;;5.25;1.73;;;26.80;99.90;;;;;;5007398;28;20037;-81
2022/07/30 10:21:55;;;;;;;6.32;1.40;;;26.80;99.90;;;;;;5008945;28;20117;-82
2022/07/30 10:24:21;;;;;;;6.57;1.33;;;26.70;99.90;;;;;;5006729;28;20104;-82
2022/07/30 10:26:48;;;;;;;10.88;2.17;;;26.70;99.90;;;;;;5008051;28;20042;-83
2022/07/30 10:29:18;;;;;;;11.07;2.22;;;26.30;99.90;;;;;;5021563;28;20037;-82
2022/07/30 10:31:48;;;;;;;8.57;1.80;;;26.20;99.90;;;;;;5023189;28;20088;-85
2022/07/30 10:34:16;;;;;;;19.30;2.80;;;26.30;99.90;;;;;;5008321;28;20103;-82
2022/07/30 10:36:50;;;;;;;8.32;1.40;;;26.40;99.90;;;;;;5007933;28;20046;-81
2022/07/30 10:39:23;;;;;;;19.63;5.35;;;26.60;99.90;;;;;;5006196;28;20092;-81
2022/07/30 10:42:27;;;;;;;5.45;1.55;;;26.80;99.90;;;;;;5010140;28;20192;-80
2022/07/30 10:45:16;;;;;;;9.55;1.65;;;26.80;99.90;;;;;;5002687;28;20046;-83
2022/07/30 10:47:46;;;;;;;9.30;1.15;;;26.80;99.90;;;;;;5025552;28;20034;-83
2022/07/30 10:50:14;;;;;;;8.73;1.33;;;26.90;99.90;;;;;;5008819;28;20069;-82
2022/07/30 10:52:59;;;;;;;4.90;1.60;;;26.60;99.90;;;;;;5004885;28;20038;-81
2022/07/30 10:55:34;;;;;;;16.00;1.80;;;26.50;99.90;;;;;;5007127;28;20045;-81
2022/07/30 10:58:08;;;;;;;7.53;1.45;;;26.30;99.90;;;;;;5007843;28;20582;-81
2022/07/30 11:00:55;;;;;;;8.38;1.30;;;26.20;99.90;;;;;;5006938;28;20799;-81
2022/07/30 11:03:29;;;;;;;4.93;1.10;;;26.20;99.90;;;;;;5006170;28;20045;-82
2022/07/30 11:06:13;;;;;;;11.27;1.10;;;26.30;99.90;;;;;;5021332;28;20042;-80
2022/07/30 11:08:47;;;;;;;6.82;1.50;;;26.50;99.90;;;;;;4998451;28;20493;-85
2022/07/30 11:11:55;;;;;;;;;;;;;;;;;;;;;
2022/07/30 11:14:44;;;;;;;7.60;1.13;;;26.60;99.90;;;;;;5000048;28;20104;-82
2022/07/30 11:17:10;;;;;;;;;;;26.40;99.90;;;;;;5000827;28;20656;-83
2022/07/30 11:20:03;;;;;;;7.88;1.27;;;26.20;99.90;;;;;;5003768;28;19922;-81
2022/07/30 11:22:40;;;;;;;4.78;1.00;;;26.60;99.90;;;;;;5005825;28;20124;-80
2022/07/30 11:25:20;;;;;;;8.75;1.30;;;26.70;99.90;;;;;;5003179;28;20203;-81
2022/07/30 11:27:49;;;;;;;6.22;1.20;;;27.00;99.90;;;;;;5003524;28;20046;-80
2022/07/30 11:30:14;;;;;;;3.65;1.52;;;26.80;99.90;;;;;;5004146;28;20041;-80
2022/07/30 11:32:44;;;;;;;5.40;1.48;;;26.80;99.90;;;;;;5000850;28;20046;-79
2022/07/30 11:35:15;;;;;;;6.88;1.33;;;26.60;99.90;;;;;;5004622;28;20469;-83
2022/07/30 11:38:19;;;;;;;4.32;1.10;;;26.50;99.90;;;;;;5005489;28;20069;-84
2022/07/30 11:40:45;;;;;;;4.13;0.82;;;26.60;99.90;;;;;;5005644;28;20084;-82
2022/07/30 11:43:19;;;;;;;4.72;1.10;;;26.60;99.90;;;;;;5003738;28;20065;-80
2022/07/30 11:46:04;;;;;;;6.05;1.23;;;26.50;99.90;;;;;;5004867;28;20088;-83
2022/07/30 11:48:30;;;;;;;5.20;0.80;;;26.30;99.90;;;;;;5020238;28;20400;-80
2022/07/30 11:50:56;;;;;;;4.25;0.85;;;26.30;99.90;;;;;;4990563;28;20030;-79
2022/07/30 11:53:23;;;;;;;6.28;0.88;;;26.50;99.90;;;;;;4999766;28;20441;-80
2022/07/30 11:55:54;;;;;;;6.75;0.77;;;26.60;99.90;;;;;;5002093;28;20042;-79
2022/07/30 11:58:31;;;;;;;1.55;0.80;;;26.90;99.90;;;;;;5000728;28;20197;-80
2022/07/30 12:01:02;;;;;;;3.40;0.93;;;26.70;99.90;;;;;;4998812;28;20034;-79
2022/07/30 12:03:33;;;;;;;4.13;1.08;;;26.60;99.90;;;;;;5005507;28;20061;-81
2022/07/30 12:06:04;;;;;;;7.65;1.00;;;26.40;99.80;;;;;;5003328;28;21004;-84
2022/07/30 12:08:42;;;;;;;2.38;1.10;;;26.30;99.90;;;;;;5003400;28;20443;-82
2022/07/30 12:11:07;;;;;;;3.72;1.02;;;26.30;99.70;;;;;;5004961;28;20042;-81
2022/07/30 12:13:33;;;;;;;2.65;0.98;;;26.10;99.60;;;;;;5009008;28;20049;-81
2022/07/30 12:15:58;;;;;;;2.63;1.33;;;26.10;99.40;;;;;;5001358;28;20042;-81
2022/07/30 12:18:27;;;;;;;5.10;0.95;;;26.10;99.30;;;;;;5001117;28;20037;-80
2022/07/30 12:21:04;;;;;;;3.83;1.05;;;26.10;98.60;;;;;;4998314;28;20053;-78
2022/07/30 12:23:30;;;;;;;3.55;1.10;;;26.30;99.70;;;;;;4998106;28;20409;-78
2022/07/30 12:25:57;;;;;;;6.28;0.80;;;26.40;99.30;;;;;;5001209;28;20125;-78
2022/07/30 12:28:26;;;;;;;4.57;1.05;;;26.60;99.10;;;;;;5002031;28;20044;-79
2022/07/30 12:30:52;;;;;;;2.60;0.95;;;26.70;98.60;;;;;;5014025;28;20042;-79
2022/07/30 12:33:19;;;;;;;9.90;0.63;;;26.80;99.50;;;;;;4999595;28;20034;-79
2022/07/30 12:35:50;;;;;;;3.78;1.08;;;26.80;98.10;;;;;;5004164;28;20041;-78
2022/07/30 12:38:17;;;;;;;4.72;0.90;;;26.80;96.90;;;;;;5001965;28;20045;-80
2022/07/30 12:40:53;;;;;;;4.85;1.33;;;26.80;96.70;;;;;;4999705;28;20583;-79
2022/07/30 12:43:43;;;;;;;4.40;1.13;;;26.80;96.60;;;;;;5001989;28;20053;-78
2022/07/30 12:46:09;;;;;;;3.47;0.65;;;26.80;97.70;;;;;;5014770;28;20407;-80
2022/07/30 12:48:35;;;;;;;6.60;0.90;;;26.80;96.50;;;;;;5002646;28;20046;-78
2022/07/30 12:51:09;;;;;;;3.10;0.75;;;26.80;97.00;;;;;;4998729;28;20037;-78
2022/07/30 12:53:35;;;;;;;3.70;0.93;;;26.80;97.50;;;;;;5014425;28;20500;-79